Time;durP1;ratioP1;P1;durP2;ratioP2;P2;SDS_P1;SDS_P2;PMS_P1;PMS_P2;Temp;Humidity;BMP_temperature;BMP_pressure;BME280_temperature;BME280_humidity;BME280_pressure;Samples;Min_cycle;Max_cycle;Signal;HPM_P1;HPM_P2
2022/07/23 00:00:29;;;;;;;7.80;5.43;;;25.20;86.20;;;;;;5051109;28;20177;-76
2022/07/23 00:02:55;;;;;;;6.63;5.88;;;25.20;86.90;;;;;;5051392;28;20179;-75
2022/07/23 00:05:20;;;;;;;8.32;6.68;;;25.20;87.10;;;;;;5031864;28;20202;-76
2022/07/23 00:07:46;;;;;;;16.02;11.85;;;25.30;87.20;;;;;;5049821;28;20659;-75
2022/07/23 00:10:11;;;;;;;67.07;46.15;;;25.30;86.80;;;;;;5051038;28;20580;-75
2022/07/23 00:12:38;;;;;;;33.42;23.98;;;25.40;87.10;;;;;;5051227;28;20629;-75
2022/07/23 00:15:05;;;;;;;28.73;19.23;;;25.40;86.70;;;;;;5051177;28;20192;-74
2022/07/23 00:17:31;;;;;;;10.75;8.07;;;25.40;86.90;;;;;;5036191;28;20174;-75
2022/07/23 00:19:56;;;;;;;9.57;7.25;;;25.40;86.90;;;;;;5054883;28;20235;-75
2022/07/23 00:22:22;;;;;;;7.95;6.68;;;25.50;87.20;;;;;;5055163;28;20221;-76
2022/07/23 00:24:48;;;;;;;7.05;5.88;;;25.50;87.30;;;;;;5055522;28;20200;-74
2022/07/23 00:27:13;;;;;;;33.13;25.00;;;25.50;87.10;;;;;;5055135;28;20199;-75
2022/07/23 00:29:39;;;;;;;33.72;26.95;;;25.30;88.50;;;;;;5053403;28;20677;-75
2022/07/23 00:32:04;;;;;;;19.10;14.20;;;25.30;88.10;;;;;;5054606;28;20185;-75
2022/07/23 00:34:30;;;;;;;29.88;21.48;;;25.30;88.30;;;;;;5054587;28;20189;-75
2022/07/23 00:36:56;;;;;;;21.92;14.98;;;25.30;88.30;;;;;;5054610;28;20227;-75
2022/07/23 00:39:22;;;;;;;16.20;10.20;;;25.40;88.40;;;;;;5054664;28;20190;-77
2022/07/23 00:41:48;;;;;;;7.88;6.47;;;25.40;88.40;;;;;;5052558;28;20177;-76
2022/07/23 00:44:18;;;;;;;8.30;6.63;;;25.30;88.30;;;;;;5053925;28;20173;-76
2022/07/23 00:46:55;;;;;;;8.80;6.10;;;25.10;89.00;;;;;;5054484;28;20645;-75
2022/07/23 00:49:26;;;;;;;8.93;6.63;;;25.00;89.80;;;;;;5053793;28;20217;-74
2022/07/23 00:51:53;;;;;;;8.23;6.15;;;24.90;90.30;;;;;;5053091;28;20190;-75
2022/07/23 00:54:19;;;;;;;9.50;6.38;;;24.90;90.50;;;;;;5042125;28;20633;-75
2022/07/23 00:56:46;;;;;;;8.80;5.93;;;24.80;90.60;;;;;;5054081;28;20190;-74
2022/07/23 00:59:12;;;;;;;9.00;6.38;;;24.80;90.70;;;;;;5053319;28;20213;-76
2022/07/23 01:01:38;;;;;;;7.85;5.88;;;24.80;90.90;;;;;;5054324;28;20213;-75
2022/07/23 01:04:04;;;;;;;6.50;5.90;;;24.80;91.00;;;;;;5053493;28;20182;-75
2022/07/23 01:06:33;;;;;;;8.48;5.95;;;24.80;91.10;;;;;;5054148;28;21061;-76
2022/07/23 01:08:59;;;;;;;7.60;6.03;;;24.70;91.30;;;;;;5052687;28;20195;-74
2022/07/23 01:11:25;;;;;;;11.23;6.18;;;24.60;91.50;;;;;;5053792;28;20263;-75
2022/07/23 01:13:50;;;;;;;8.02;5.55;;;24.60;91.70;;;;;;5053918;28;20173;-74
2022/07/23 01:16:16;;;;;;;8.45;6.50;;;24.60;91.80;;;;;;5053591;28;20200;-75
2022/07/23 01:18:41;;;;;;;8.15;5.70;;;24.60;91.90;;;;;;5053694;28;20633;-74
2022/07/23 01:21:12;;;;;;;10.10;6.25;;;24.70;91.90;;;;;;5053516;28;20213;-75
2022/07/23 01:23:38;;;;;;;7.47;6.00;;;24.70;92.00;;;;;;5053669;28;20632;-76
2022/07/23 01:26:04;;;;;;;10.13;6.22;;;24.70;92.10;;;;;;5053330;28;20226;-76
2022/07/23 01:28:29;;;;;;;7.75;6.30;;;24.60;92.50;;;;;;5053059;28;20657;-75
2022/07/23 01:30:55;;;;;;;6.95;5.85;;;24.60;92.50;;;;;;5053522;28;20295;-75
2022/07/23 01:33:20;;;;;;;8.18;6.25;;;24.50;92.80;;;;;;5053557;28;20733;-75
2022/07/23 01:35:46;;;;;;;7.15;6.35;;;24.40;93.10;;;;;;5052548;28;20613;-75
2022/07/23 01:38:11;;;;;;;8.07;6.20;;;24.30;93.20;;;;;;5052484;28;20666;-76
2022/07/23 01:40:37;;;;;;;9.05;6.07;;;24.20;93.20;;;;;;5053568;28;20671;-75
2022/07/23 01:43:02;;;;;;;6.95;6.25;;;24.10;93.40;;;;;;5053411;28;20532;-74
2022/07/23 01:45:28;;;;;;;7.70;5.82;;;24.10;93.60;;;;;;5052021;28;20209;-75
2022/07/23 01:47:53;;;;;;;6.93;5.90;;;24.00;94.00;;;;;;5052639;28;20174;-75
2022/07/23 01:50:19;;;;;;;8.07;5.93;;;23.90;94.20;;;;;;5052557;28;20212;-75
2022/07/23 01:52:45;;;;;;;6.57;5.47;;;23.90;94.30;;;;;;5052686;28;20186;-76
2022/07/23 01:55:10;;;;;;;7.30;6.22;;;23.80;94.70;;;;;;5052777;28;20189;-75
2022/07/23 01:57:36;;;;;;;7.95;5.63;;;23.70;95.20;;;;;;5053231;28;20184;-75
2022/07/23 02:00:03;;;;;;;8.30;6.05;;;23.60;95.70;;;;;;5052340;28;20272;-73
2022/07/23 02:02:28;;;;;;;8.30;6.13;;;23.50;96.40;;;;;;5048820;28;20189;-76
2022/07/23 02:04:54;;;;;;;8.45;7.20;;;23.50;97.30;;;;;;5051328;28;20173;-76
2022/07/23 02:07:19;;;;;;;7.85;6.53;;;23.40;97.60;;;;;;5052610;28;20699;-75
2022/07/23 02:09:45;;;;;;;10.52;7.47;;;23.30;98.10;;;;;;5052219;28;20228;-74
2022/07/23 02:12:10;;;;;;;8.77;6.78;;;23.20;98.80;;;;;;5052588;28;20185;-74
2022/07/23 02:14:36;;;;;;;9.32;6.95;;;23.10;99.40;;;;;;5052685;28;20183;-74
2022/07/23 02:17:01;;;;;;;8.10;6.78;;;23.00;99.80;;;;;;5052848;28;20605;-73
2022/07/23 02:19:27;;;;;;;9.57;6.60;;;23.00;99.90;;;;;;5052234;28;20192;-74
2022/07/23 02:21:54;;;;;;;8.75;6.57;;;22.90;99.90;;;;;;5053013;28;20225;-75
2022/07/23 02:24:19;;;;;;;10.38;6.50;;;22.90;99.90;;;;;;5052700;28;20200;-75
2022/07/23 02:26:45;;;;;;;8.90;6.43;;;22.90;99.90;;;;;;5052531;28;20644;-75
2022/07/23 02:29:11;;;;;;;7.47;6.20;;;22.90;99.90;;;;;;5052185;28;20197;-75
2022/07/23 02:31:36;;;;;;;9.07;6.38;;;22.90;99.90;;;;;;5052620;28;20185;-74
2022/07/23 02:34:02;;;;;;;6.95;5.97;;;22.90;99.90;;;;;;5052732;28;20173;-73
2022/07/23 02:36:27;;;;;;;11.77;6.75;;;23.00;99.90;;;;;;5052189;28;20242;-75
2022/07/23 02:38:53;;;;;;;33.30;24.00;;;23.00;99.90;;;;;;5051874;28;20193;-74
2022/07/23 02:41:19;;;;;;;32.35;23.33;;;22.90;99.90;;;;;;5052228;28;20186;-75
2022/07/23 02:43:44;;;;;;;15.18;9.55;;;22.90;99.90;;;;;;5051365;28;20178;-76
2022/07/23 02:46:10;;;;;;;11.63;8.27;;;22.80;99.90;;;;;;5051894;28;20258;-73
2022/07/23 02:48:35;;;;;;;9.38;5.90;;;22.80;99.90;;;;;;5052074;28;20182;-74
2022/07/23 02:51:01;;;;;;;7.32;6.53;;;22.80;99.90;;;;;;5051916;28;20621;-74
2022/07/23 02:53:26;;;;;;;10.18;6.22;;;22.80;99.90;;;;;;5051818;28;20185;-75
2022/07/23 02:55:52;;;;;;;10.20;6.28;;;22.80;99.90;;;;;;5051969;28;20517;-74
2022/07/23 02:58:18;;;;;;;8.35;6.18;;;22.70;99.90;;;;;;5051587;28;20690;-74
2022/07/23 03:00:43;;;;;;;10.13;6.70;;;22.70;99.90;;;;;;5051593;28;20220;-74
2022/07/23 03:03:09;;;;;;;10.15;6.07;;;22.70;99.90;;;;;;5051563;28;20225;-74
2022/07/23 03:05:35;;;;;;;10.23;6.90;;;22.70;99.90;;;;;;5051650;28;20178;-74
2022/07/23 03:08:01;;;;;;;8.27;6.43;;;22.70;99.90;;;;;;5050328;28;20196;-74
2022/07/23 03:10:26;;;;;;;10.18;6.07;;;22.70;99.90;;;;;;5050711;28;20248;-75
2022/07/23 03:12:52;;;;;;;8.63;6.43;;;22.70;99.90;;;;;;5051580;28;20199;-74
2022/07/23 03:15:18;;;;;;;7.40;6.15;;;22.70;99.90;;;;;;5051263;28;20186;-75
2022/07/23 03:17:44;;;;;;;8.75;6.32;;;22.60;99.90;;;;;;5051610;28;20185;-73
2022/07/23 03:20:10;;;;;;;9.40;6.25;;;22.50;99.90;;;;;;5051720;28;20212;-74
2022/07/23 03:22:36;;;;;;;20.13;14.50;;;22.50;99.90;;;;;;5051052;28;20252;-74
2022/07/23 03:25:01;;;;;;;15.55;10.32;;;22.50;99.90;;;;;;5051222;28;20192;-74
2022/07/23 03:27:29;;;;;;;19.02;13.43;;;22.50;99.90;;;;;;5050839;28;20272;-74
2022/07/23 03:29:57;;;;;;;9.45;7.28;;;22.60;99.90;;;;;;5050253;28;20229;-74
2022/07/23 03:32:24;;;;;;;15.30;11.38;;;22.60;99.90;;;;;;5050622;28;20655;-74
2022/07/23 03:34:50;;;;;;;21.95;14.07;;;22.60;99.90;;;;;;5051387;28;20268;-74
2022/07/23 03:37:17;;;;;;;12.70;9.63;;;22.60;99.90;;;;;;5050533;28;20185;-75
2022/07/23 03:39:43;;;;;;;16.70;12.20;;;22.70;99.90;;;;;;5050651;28;20272;-74
2022/07/23 03:42:08;;;;;;;9.88;7.22;;;22.80;99.90;;;;;;5050473;28;20268;-74
2022/07/23 03:44:36;;;;;;;9.52;6.28;;;22.90;99.90;;;;;;5050393;28;20254;-75
2022/07/23 03:47:02;;;;;;;15.00;6.53;;;22.90;99.90;;;;;;5051075;28;20550;-74
2022/07/23 03:49:28;;;;;;;8.82;5.70;;;22.90;99.90;;;;;;5049698;28;20201;-75
2022/07/23 03:51:53;;;;;;;8.75;5.78;;;22.80;99.90;;;;;;5050608;28;20200;-74
2022/07/23 03:54:19;;;;;;;9.38;6.72;;;22.80;99.90;;;;;;5050421;28;20174;-75
2022/07/23 03:56:44;;;;;;;14.95;9.80;;;22.70;99.90;;;;;;5051633;28;20185;-75
2022/07/23 03:59:10;;;;;;;9.82;7.75;;;22.70;99.90;;;;;;5050520;28;20531;-75
2022/07/23 04:01:36;;;;;;;17.88;12.27;;;22.60;99.90;;;;;;5050665;28;20178;-75
2022/07/23 04:04:02;;;;;;;10.85;8.75;;;22.60;99.90;;;;;;5050996;28;20181;-73
2022/07/23 04:06:28;;;;;;;9.85;7.70;;;22.70;99.90;;;;;;5050581;28;20649;-74
2022/07/23 04:08:54;;;;;;;11.48;7.70;;;22.70;99.90;;;;;;5049981;28;20201;-74
2022/07/23 04:11:19;;;;;;;11.40;8.88;;;22.70;99.90;;;;;;5050938;28;20193;-75
2022/07/23 04:13:45;;;;;;;9.85;6.72;;;22.70;99.90;;;;;;5050358;28;20181;-74
2022/07/23 04:16:11;;;;;;;9.07;6.78;;;22.80;99.90;;;;;;5051047;28;20185;-74
2022/07/23 04:18:37;;;;;;;11.00;6.05;;;22.80;99.90;;;;;;5047435;28;20185;-75
2022/07/23 04:21:02;;;;;;;8.32;6.75;;;22.90;99.90;;;;;;5051004;28;20539;-73
2022/07/23 04:23:28;;;;;;;7.68;6.03;;;22.90;99.90;;;;;;5050622;28;20185;-74
2022/07/23 04:25:53;;;;;;;9.25;7.00;;;23.00;99.90;;;;;;5050503;28;20636;-74
2022/07/23 04:28:19;;;;;;;13.63;6.90;;;23.10;99.90;;;;;;5050629;28;20181;-75
2022/07/23 04:30:44;;;;;;;7.32;6.22;;;23.10;99.90;;;;;;5049705;28;20968;-75
2022/07/23 04:33:10;;;;;;;8.60;6.05;;;23.00;99.90;;;;;;5048513;28;20181;-75
2022/07/23 04:35:36;;;;;;;6.53;5.68;;;23.00;99.90;;;;;;5050484;28;20185;-75
2022/07/23 04:38:03;;;;;;;9.55;6.28;;;23.00;99.90;;;;;;5050632;28;20182;-74
2022/07/23 04:40:29;;;;;;;11.27;7.72;;;23.00;99.90;;;;;;5050137;28;20276;-77
2022/07/23 04:42:55;;;;;;;8.95;6.35;;;22.90;99.90;;;;;;5049992;28;20177;-71
2022/07/23 04:45:20;;;;;;;7.18;5.95;;;22.90;99.90;;;;;;5049658;28;20273;-67
2022/07/23 04:47:46;;;;;;;7.93;6.53;;;22.90;99.90;;;;;;5049298;28;20264;-67
2022/07/23 04:50:12;;;;;;;10.20;6.45;;;22.80;99.90;;;;;;5049746;28;20236;-65
2022/07/23 04:52:37;;;;;;;7.15;5.68;;;22.90;99.90;;;;;;5049724;28;20182;-65
2022/07/23 04:55:03;;;;;;;8.75;6.07;;;22.90;99.90;;;;;;5049272;28;20185;-66
2022/07/23 04:57:29;;;;;;;7.15;6.03;;;22.90;99.90;;;;;;5048331;28;20185;-69
2022/07/23 04:59:54;;;;;;;8.18;6.82;;;22.90;99.90;;;;;;5050474;28;20272;-67
2022/07/23 05:02:20;;;;;;;8.88;6.18;;;22.80;99.90;;;;;;5052976;28;20315;-67
2022/07/23 05:04:45;;;;;;;7.45;6.28;;;22.80;99.90;;;;;;5054274;28;20197;-67
2022/07/23 05:07:11;;;;;;;14.05;9.30;;;22.80;99.90;;;;;;5054265;28;20208;-65
2022/07/23 05:09:37;;;;;;;16.85;7.28;;;22.90;99.90;;;;;;5053479;28;20216;-66
2022/07/23 05:12:02;;;;;;;9.68;6.63;;;22.90;99.90;;;;;;5053032;28;20181;-68
2022/07/23 05:14:28;;;;;;;8.52;6.65;;;22.90;99.90;;;;;;5052988;28;20177;-69
2022/07/23 05:16:54;;;;;;;12.20;6.95;;;22.90;99.90;;;;;;5053191;28;20189;-67
2022/07/23 05:19:19;;;;;;;11.07;7.03;;;22.90;99.90;;;;;;5053427;28;20185;-66
2022/07/23 05:21:45;;;;;;;8.15;6.50;;;22.90;99.90;;;;;;5052808;28;20217;-66
2022/07/23 05:24:10;;;;;;;8.13;6.32;;;22.90;99.90;;;;;;5053584;28;20272;-68
2022/07/23 05:26:36;;;;;;;8.40;6.07;;;22.90;99.90;;;;;;5053302;28;20777;-66
2022/07/23 05:29:02;;;;;;;10.52;6.57;;;22.90;99.90;;;;;;5052938;28;20533;-65
2022/07/23 05:31:27;;;;;;;8.77;6.35;;;22.90;99.90;;;;;;5053232;28;20284;-66
2022/07/23 05:33:53;;;;;;;11.95;6.60;;;22.90;99.90;;;;;;5052778;28;20200;-67
2022/07/23 05:36:18;;;;;;;7.57;6.43;;;23.00;99.90;;;;;;5052606;28;20191;-67
2022/07/23 05:38:44;;;;;;;7.95;6.05;;;23.00;99.90;;;;;;5051689;28;20655;-67
2022/07/23 05:41:10;;;;;;;7.70;6.43;;;23.10;99.90;;;;;;5053135;28;20178;-66
2022/07/23 05:43:35;;;;;;;7.28;5.82;;;23.00;99.90;;;;;;5053073;28;20182;-66
2022/07/23 05:46:01;;;;;;;7.15;6.30;;;22.90;99.90;;;;;;5053105;28;20185;-67
2022/07/23 05:48:26;;;;;;;12.00;7.78;;;22.90;99.90;;;;;;5052918;28;20185;-67
2022/07/23 05:50:52;;;;;;;9.18;7.03;;;22.90;99.90;;;;;;5053674;28;20266;-67
2022/07/23 05:53:17;;;;;;;8.85;6.40;;;22.80;99.90;;;;;;5053019;28;20190;-64
2022/07/23 05:55:43;;;;;;;10.20;6.72;;;22.80;99.90;;;;;;5053491;28;20181;-66
2022/07/23 05:58:09;;;;;;;8.68;6.32;;;22.80;99.90;;;;;;5052729;28;20181;-65
2022/07/23 06:00:34;;;;;;;8.77;6.70;;;22.90;99.90;;;;;;5052801;28;20185;-66
2022/07/23 06:03:00;;;;;;;6.88;5.93;;;23.00;99.90;;;;;;5052894;28;20178;-66
2022/07/23 06:05:26;;;;;;;8.13;6.20;;;23.00;99.90;;;;;;5052678;28;20194;-66
2022/07/23 06:07:53;;;;;;;7.65;5.82;;;23.10;99.90;;;;;;5052471;28;20228;-66
2022/07/23 06:10:19;;;;;;;9.40;6.10;;;23.10;99.90;;;;;;5051929;28;20213;-66
2022/07/23 06:12:44;;;;;;;8.60;5.95;;;23.10;99.90;;;;;;5052100;28;20186;-66
2022/07/23 06:15:11;;;;;;;8.45;5.80;;;23.10;99.90;;;;;;5051561;28;20223;-65
2022/07/23 06:17:39;;;;;;;20.40;12.15;;;23.10;99.90;;;;;;5052550;28;20613;-67
2022/07/23 06:20:05;;;;;;;32.25;16.80;;;23.10;99.90;;;;;;5052281;28;20273;-66
2022/07/23 06:22:31;;;;;;;29.45;15.40;;;23.10;99.90;;;;;;5052324;28;20576;-66
2022/07/23 06:24:56;;;;;;;13.48;8.77;;;23.10;99.90;;;;;;5052203;28;20177;-66
2022/07/23 06:27:22;;;;;;;11.68;7.18;;;23.10;99.90;;;;;;5052312;28;20262;-66
2022/07/23 06:29:47;;;;;;;12.20;7.72;;;23.10;99.90;;;;;;5052181;28;20204;-67
2022/07/23 06:32:13;;;;;;;13.00;7.53;;;23.10;99.90;;;;;;5051920;28;20299;-67
2022/07/23 06:34:38;;;;;;;13.50;8.80;;;23.20;99.90;;;;;;5052468;28;20192;-73
2022/07/23 06:37:04;;;;;;;17.17;8.65;;;23.10;99.90;;;;;;5052398;28;20181;-70
2022/07/23 06:39:29;;;;;;;18.95;10.68;;;23.10;99.90;;;;;;5051866;28;20270;-70
2022/07/23 06:41:55;;;;;;;20.40;11.63;;;23.10;99.90;;;;;;5052221;28;20260;-76
2022/07/23 06:44:21;;;;;;;14.55;10.38;;;23.00;99.90;;;;;;5051588;28;20264;-68
2022/07/23 06:46:46;;;;;;;8.65;6.35;;;23.10;99.90;;;;;;5051841;28;20568;-72
2022/07/23 06:49:12;;;;;;;8.65;6.85;;;22.90;99.90;;;;;;5051685;28;20197;-76
2022/07/23 06:51:37;;;;;;;11.25;7.40;;;22.60;99.90;;;;;;5052391;28;20183;-75
2022/07/23 06:54:03;;;;;;;11.80;7.53;;;22.50;99.90;;;;;;5051988;28;20169;-72
2022/07/23 06:56:29;;;;;;;11.95;7.22;;;22.30;99.90;;;;;;5051999;28;20192;-74
2022/07/23 06:58:54;;;;;;;13.55;7.20;;;22.00;99.90;;;;;;5051437;28;20184;-74
2022/07/23 07:01:21;;;;;;;14.65;9.55;;;21.90;99.90;;;;;;5051946;28;20526;-75
2022/07/23 07:03:46;;;;;;;25.70;16.30;;;22.00;99.90;;;;;;5051656;28;20181;-75
2022/07/23 07:06:12;;;;;;;16.05;10.98;;;22.20;99.90;;;;;;5051882;28;20644;-75
2022/07/23 07:08:37;;;;;;;13.90;10.20;;;22.30;99.90;;;;;;5051255;28;20690;-75
2022/07/23 07:11:03;;;;;;;15.00;10.35;;;22.50;99.90;;;;;;5051428;28;20271;-74
2022/07/23 07:13:29;;;;;;;12.43;7.43;;;22.50;99.90;;;;;;5051821;28;20543;-75
2022/07/23 07:15:54;;;;;;;14.82;8.55;;;22.70;99.90;;;;;;5051432;28;20174;-78
2022/07/23 07:18:20;;;;;;;16.10;11.68;;;22.80;99.90;;;;;;5050911;28;20192;-70
2022/07/23 07:20:45;;;;;;;36.75;22.77;;;22.90;99.90;;;;;;5051500;28;20641;-73
2022/07/23 07:23:12;;;;;;;24.42;16.27;;;23.00;99.90;;;;;;5051070;28;20221;-76
2022/07/23 07:25:38;;;;;;;11.55;7.93;;;23.30;99.90;;;;;;5050644;28;20224;-73
2022/07/23 07:28:03;;;;;;;13.63;7.88;;;23.50;99.90;;;;;;5050967;28;20801;-75
2022/07/23 07:30:29;;;;;;;9.52;7.18;;;23.70;99.90;;;;;;5049940;28;20227;-75
2022/07/23 07:32:54;;;;;;;13.70;6.88;;;23.80;99.90;;;;;;5050014;28;20177;-77
2022/07/23 07:35:20;;;;;;;10.07;7.00;;;23.90;99.90;;;;;;5050777;28;20170;-76
2022/07/23 07:37:45;;;;;;;11.65;7.35;;;24.00;99.90;;;;;;5051372;28;20259;-71
2022/07/23 07:40:11;;;;;;;10.10;6.65;;;24.40;99.90;;;;;;5051241;28;20185;-69
2022/07/23 07:42:54;;;;;;;10.68;6.43;;;24.80;99.90;;;;;;5051306;28;20181;-74
2022/07/23 07:45:20;;;;;;;7.72;6.28;;;24.60;99.90;;;;;;5050533;28;20189;-76
2022/07/23 07:47:46;;;;;;;10.52;7.10;;;24.40;99.90;;;;;;5051285;28;20656;-79
2022/07/23 07:50:12;;;;;;;8.00;6.65;;;24.30;99.90;;;;;;5050647;28;20216;-75
2022/07/23 07:52:38;;;;;;;8.70;6.80;;;24.30;99.90;;;;;;5051709;28;20466;-72
2022/07/23 07:55:06;;;;;;;8.15;5.93;;;24.20;99.90;;;;;;5051019;28;20196;-71
2022/07/23 07:57:31;;;;;;;7.75;6.10;;;24.10;99.90;;;;;;5051489;28;20231;-73
2022/07/23 07:59:57;;;;;;;7.63;6.32;;;24.10;99.90;;;;;;5050674;28;20186;-73
2022/07/23 08:02:23;;;;;;;7.28;6.20;;;24.00;99.90;;;;;;5051469;28;20264;-72
2022/07/23 08:04:48;;;;;;;9.98;6.47;;;23.80;99.90;;;;;;5050463;28;20177;-72
2022/07/23 08:07:15;;;;;;;8.18;6.25;;;23.70;99.90;;;;;;5051100;28;20185;-72
2022/07/23 08:09:40;;;;;;;8.57;6.32;;;23.60;99.90;;;;;;5051506;28;20213;-73
2022/07/23 08:12:06;;;;;;;10.55;6.28;;;23.60;99.90;;;;;;5051373;28;20219;-72
2022/07/23 08:14:32;;;;;;;7.43;5.78;;;23.40;99.90;;;;;;5051566;28;20256;-73
2022/07/23 08:16:57;;;;;;;7.03;5.82;;;23.50;99.90;;;;;;5051482;28;20272;-72
2022/07/23 08:19:23;;;;;;;7.68;5.47;;;24.00;99.90;;;;;;5051555;28;20178;-73
2022/07/23 08:21:48;;;;;;;7.15;5.22;;;25.00;99.90;;;;;;5050201;28;20225;-73
2022/07/23 08:24:14;;;;;;;7.07;5.13;;;25.90;99.90;;;;;;5051116;28;20624;-73
2022/07/23 08:26:40;;;;;;;7.10;4.68;;;26.90;99.90;;;;;;5051066;28;20224;-73
2022/07/23 08:29:06;;;;;;;6.13;4.95;;;27.80;99.90;;;;;;5051166;28;20268;-73
2022/07/23 08:31:32;;;;;;;6.10;5.00;;;28.40;99.80;;;;;;5051288;28;20272;-74
2022/07/23 08:33:59;;;;;;;8.82;4.68;;;28.90;98.30;;;;;;5051204;28;20192;-73
2022/07/23 08:36:27;;;;;;;6.47;5.00;;;29.40;96.30;;;;;;5052303;28;20177;-73
2022/07/23 08:38:55;;;;;;;12.73;5.38;;;29.60;94.90;;;;;;5055353;28;20205;-73
2022/07/23 08:41:21;;;;;;;8.63;5.45;;;29.30;94.80;;;;;;5055262;28;20174;-73
2022/07/23 08:43:46;;;;;;;26.60;8.10;;;28.80;94.80;;;;;;5055308;28;20521;-73
2022/07/23 08:46:13;;;;;;;10.40;5.38;;;28.30;95.50;;;;;;5055044;28;20173;-73
2022/07/23 08:48:39;;;;;;;9.70;4.82;;;27.90;96.40;;;;;;5055188;28;20178;-74
2022/07/23 08:51:06;;;;;;;11.43;5.57;;;27.90;97.20;;;;;;5054793;28;20228;-73
2022/07/23 08:53:35;;;;;;;6.47;5.15;;;28.20;97.50;;;;;;5055118;28;20185;-73
2022/07/23 08:56:02;;;;;;;10.70;5.40;;;28.70;96.30;;;;;;5055077;28;20247;-73
2022/07/23 08:58:28;;;;;;;5.85;4.75;;;29.30;95.20;;;;;;5054947;28;20166;-74
2022/07/23 09:00:53;;;;;;;5.88;4.65;;;29.80;94.60;;;;;;5055012;28;20185;-72
2022/07/23 09:03:22;;;;;;;7.40;4.68;;;30.20;92.30;;;;;;5054676;28;20256;-72
2022/07/23 09:05:50;;;;;;;5.78;4.88;;;30.20;92.00;;;;;;5054882;28;20173;-72
2022/07/23 09:08:21;;;;;;;6.45;5.00;;;30.10;91.80;;;;;;5053440;28;20232;-72
2022/07/23 09:10:54;;;;;;;7.78;5.03;;;29.90;92.50;;;;;;5053367;28;20239;-72
2022/07/23 09:13:27;;;;;;;7.70;4.97;;;30.00;92.90;;;;;;5054547;28;20227;-71
2022/07/23 09:15:55;;;;;;;7.15;5.15;;;30.40;91.80;;;;;;5054801;28;20185;-72
2022/07/23 09:18:32;;;;;;;7.07;4.60;;;30.50;90.70;;;;;;5053239;28;20177;-72
2022/07/23 09:21:31;;;;;;;6.50;4.75;;;30.60;90.40;;;;;;5054295;28;20535;-72
2022/07/23 09:24:15;;;;;;;6.47;4.65;;;30.90;88.30;;;;;;5054462;28;20490;-74
2022/07/23 09:26:52;;;;;;;5.00;4.43;;;30.90;88.60;;;;;;5054396;28;20166;-74
2022/07/23 09:29:22;;;;;;;5.72;4.78;;;31.30;86.70;;;;;;5054205;28;20209;-73
2022/07/23 09:31:53;;;;;;;6.05;4.60;;;31.50;84.60;;;;;;5053090;28;20273;-73
2022/07/23 09:34:25;;;;;;;6.38;4.72;;;31.90;83.60;;;;;;5054250;28;20165;-73
2022/07/23 09:37:08;;;;;;;6.75;4.68;;;32.20;81.30;;;;;;5054356;28;20219;-74
2022/07/23 09:39:34;;;;;;;5.32;4.65;;;32.20;78.10;;;;;;5054428;28;20177;-73
2022/07/23 09:42:21;;;;;;;5.25;4.75;;;32.10;76.70;;;;;;5054132;28;20651;-73
2022/07/23 09:44:50;;;;;;;6.55;4.50;;;32.20;80.10;;;;;;5053949;28;20184;-70
2022/07/23 09:47:16;;;;;;;8.27;4.88;;;32.20;79.50;;;;;;5053259;28;20248;-71
2022/07/23 09:49:58;;;;;;;5.88;4.95;;;32.20;79.60;;;;;;5053221;28;20288;-70
2022/07/23 09:52:32;;;;;;;5.63;5.03;;;31.90;77.10;;;;;;5053756;28;20189;-70
2022/07/23 09:55:00;;;;;;;5.85;5.25;;;32.00;77.40;;;;;;5053729;28;20177;-70
2022/07/23 09:57:26;;;;;;;7.72;4.78;;;32.30;79.00;;;;;;5052554;28;20177;-71
2022/07/23 09:59:52;;;;;;;6.20;5.18;;;32.50;76.40;;;;;;5053842;28;20182;-70
2022/07/23 10:02:19;;;;;;;6.88;5.20;;;32.60;76.60;;;;;;5053555;28;20205;-70
2022/07/23 10:04:45;;;;;;;5.85;4.60;;;32.50;74.50;;;;;;5053756;28;20173;-74
2022/07/23 10:07:12;;;;;;;5.20;4.63;;;32.50;75.60;;;;;;5052395;28;20181;-72
2022/07/23 10:09:40;;;;;;;5.45;4.50;;;32.80;75.20;;;;;;5053531;28;20219;-72
2022/07/23 10:12:18;;;;;;;5.57;4.45;;;33.10;72.40;;;;;;5053518;28;20656;-73
2022/07/23 10:14:44;;;;;;;5.07;4.47;;;33.10;69.60;;;;;;5053670;28;20205;-73
2022/07/23 10:17:10;;;;;;;7.18;4.97;;;33.40;71.20;;;;;;5053407;28;20644;-73
2022/07/23 10:19:36;;;;;;;5.60;5.10;;;33.30;68.50;;;;;;5053360;28;20184;-73
2022/07/23 10:22:08;;;;;;;6.55;5.57;;;32.80;70.10;;;;;;5053257;28;20240;-73
2022/07/23 10:24:59;;;;;;;6.40;5.65;;;32.30;71.80;;;;;;5052211;28;20174;-73
2022/07/23 10:27:30;;;;;;;6.50;4.70;;;31.80;70.90;;;;;;5053359;28;20185;-73
2022/07/23 10:30:07;;;;;;;7.82;5.10;;;31.70;73.90;;;;;;5053248;28;20220;-73
2022/07/23 10:32:53;;;;;;;7.88;5.30;;;32.20;75.30;;;;;;5053323;28;20231;-74
2022/07/23 10:35:43;;;;;;;6.10;5.47;;;32.00;72.40;;;;;;5053069;28;20212;-73
2022/07/23 10:38:14;;;;;;;8.30;5.30;;;32.20;71.50;;;;;;5053083;28;20521;-73
2022/07/23 10:40:55;;;;;;;6.22;5.50;;;32.00;70.80;;;;;;5053126;28;20196;-73
2022/07/23 10:43:20;;;;;;;6.75;6.00;;;32.00;71.80;;;;;;5052986;28;20204;-73
2022/07/23 10:45:46;;;;;;;7.40;5.47;;;32.00;71.70;;;;;;5053298;28;20217;-74
2022/07/23 10:48:22;;;;;;;6.78;5.25;;;32.30;72.60;;;;;;5053102;28;20178;-73
2022/07/23 10:51:20;;;;;;;6.57;5.72;;;32.50;73.10;;;;;;5052826;28;20216;-73
2022/07/23 10:53:51;;;;;;;7.22;5.70;;;32.60;70.10;;;;;;5032369;28;20202;-73
2022/07/23 10:56:50;;;;;;;6.57;5.60;;;32.70;69.90;;;;;;5032613;28;20174;-72
2022/07/23 10:59:16;;;;;;;7.15;5.43;;;32.60;69.50;;;;;;5039109;28;20182;-73
2022/07/23 11:01:41;;;;;;;6.88;5.35;;;32.50;69.60;;;;;;5053482;28;20276;-73
2022/07/23 11:04:07;;;;;;;10.95;5.90;;;32.70;68.60;;;;;;5052882;28;20531;-74
2022/07/23 11:06:48;;;;;;;7.20;5.38;;;32.90;68.20;;;;;;5053354;28;20216;-74
2022/07/23 11:09:23;;;;;;;6.47;5.65;;;33.20;67.20;;;;;;5052539;28;20169;-74
2022/07/23 11:11:49;;;;;;;6.88;5.75;;;33.40;68.00;;;;;;5052669;28;20547;-74
2022/07/23 11:14:14;;;;;;;6.13;5.18;;;33.30;67.00;;;;;;5052471;28;20214;-74
2022/07/23 11:16:48;;;;;;;5.30;4.80;;;33.40;66.60;;;;;;5052415;28;20180;-74
2022/07/23 11:19:13;;;;;;;4.90;4.40;;;33.70;61.60;;;;;;5052297;28;20252;-73
2022/07/23 11:21:39;;;;;;;7.82;4.75;;;34.00;60.90;;;;;;5052122;28;20791;-74
2022/07/23 11:24:18;;;;;;;9.10;5.28;;;34.30;61.80;;;;;;5052160;28;20722;-73
2022/07/23 11:26:49;;;;;;;7.10;5.28;;;34.50;62.60;;;;;;5052293;28;20205;-74
2022/07/23 11:31:56;;;;;;;6.25;5.18;;;34.00;62.00;;;;;;5052322;28;20185;-73
2022/07/23 11:34:35;;;;;;;5.65;4.50;;;34.00;61.70;;;;;;5052127;28;20178;-72
2022/07/23 11:37:02;;;;;;;6.57;5.68;;;33.90;61.50;;;;;;5052254;28;20177;-73
2022/07/23 11:39:29;;;;;;;6.55;5.38;;;33.80;61.80;;;;;;5050850;28;20217;-72
2022/07/23 11:41:56;;;;;;;5.65;5.15;;;34.00;60.80;;;;;;5051832;28;20544;-72
2022/07/23 11:44:34;;;;;;;5.63;4.45;;;34.10;60.40;;;;;;5051974;28;20191;-73
2022/07/23 11:47:04;;;;;;;6.30;4.85;;;34.20;59.50;;;;;;5051751;28;20177;-73
2022/07/23 11:49:30;;;;;;;6.43;5.40;;;34.00;59.90;;;;;;5051817;28;20209;-72
2022/07/23 11:52:08;;;;;;;5.32;4.82;;;33.90;59.20;;;;;;5051715;28;20181;-72
2022/07/23 11:54:36;;;;;;;7.15;5.15;;;33.50;59.40;;;;;;5052047;28;20188;-72
2022/07/23 11:57:02;;;;;;;5.57;4.57;;;33.40;60.80;;;;;;5051895;28;20252;-71
2022/07/23 11:59:31;;;;;;;4.50;4.10;;;33.50;59.20;;;;;;5051583;28;20181;-72
2022/07/23 12:02:02;;;;;;;4.43;4.00;;;33.60;57.70;;;;;;5051544;28;20269;-73
2022/07/23 12:04:48;;;;;;;4.63;4.22;;;33.60;56.60;;;;;;5051677;28;20192;-73
2022/07/23 12:07:27;;;;;;;6.25;4.35;;;33.90;55.60;;;;;;5051551;28;20684;-73
2022/07/23 12:09:54;;;;;;;7.82;5.22;;;33.90;56.20;;;;;;5051636;28;20610;-74
2022/07/23 12:12:20;;;;;;;4.75;4.15;;;33.90;56.40;;;;;;5054119;28;20266;-72
2022/07/23 12:14:48;;;;;;;4.82;4.30;;;34.10;56.30;;;;;;5055845;28;20205;-73
2022/07/23 12:17:14;;;;;;;5.47;4.38;;;34.10;55.20;;;;;;5055676;28;20184;-71
2022/07/23 12:19:40;;;;;;;6.13;4.95;;;33.80;56.20;;;;;;5055832;28;20526;-73
2022/07/23 12:22:05;;;;;;;5.88;4.22;;;33.50;56.90;;;;;;5055531;28;20221;-72
2022/07/23 12:24:31;;;;;;;6.22;3.92;;;33.30;57.20;;;;;;5055694;28;20181;-72
2022/07/23 12:27:13;;;;;;;4.93;4.30;;;33.50;55.10;;;;;;5055442;28;20648;-71
2022/07/23 12:29:39;;;;;;;4.47;4.07;;;33.70;55.00;;;;;;5055400;28;20205;-72
2022/07/23 12:32:26;;;;;;;8.30;4.30;;;33.70;54.90;;;;;;5055395;28;20272;-71
2022/07/23 12:35:02;;;;;;;5.15;4.60;;;33.80;54.90;;;;;;5055505;28;20173;-72
2022/07/23 12:37:34;;;;;;;7.40;5.30;;;33.90;56.30;;;;;;5054098;28;20629;-72
2022/07/23 12:40:20;;;;;;;7.60;5.43;;;33.70;56.10;;;;;;5055271;28;20539;-72
2022/07/23 12:42:50;;;;;;;6.82;5.00;;;33.70;56.30;;;;;;5055277;28;20659;-72
2022/07/23 12:45:16;;;;;;;5.90;4.60;;;33.80;55.70;;;;;;5055162;28;20203;-72
2022/07/23 12:47:57;;;;;;;5.03;4.60;;;34.00;55.20;;;;;;5055259;28;20208;-71